Time;durP1;ratioP1;P1;durP2;ratioP2;P2;SDS_P1;SDS_P2;PMS_P1;PMS_P2;Temp;Humidity;BMP_temperature;BMP_pressure;BME280_temperature;BME280_humidity;BME280_pressure;Samples;Min_cycle;Max_cycle;Signal;HPM_P1;HPM_P2
2021/09/28 00:03:34;;;;;;;6.40;1.63;;;;;;;13.78;66.01;100520.84;10430670;28;20509;-63
2021/09/28 00:08:37;;;;;;;7.13;1.67;;;;;;;13.76;65.78;100523.56;10429749;28;20063;-63
2021/09/28 00:13:39;;;;;;;9.02;2.00;;;;;;;13.77;65.77;100520.03;10430954;28;20049;-63
2021/09/28 00:18:41;;;;;;;7.30;1.70;;;;;;;13.70;65.54;100523.13;10430697;28;20045;-63
2021/09/28 00:23:43;;;;;;;5.45;1.70;;;;;;;13.71;65.65;100530.06;10429119;28;20051;-63
2021/09/28 00:28:44;;;;;;;5.15;1.80;;;;;;;13.46;65.73;100519.41;10429964;28;20053;-63
2021/09/28 00:33:46;;;;;;;10.52;1.90;;;;;;;13.49;65.88;100525.34;10430322;28;20493;-63
2021/09/28 00:38:48;;;;;;;9.00;1.92;;;;;;;13.52;66.01;100527.75;10429799;28;20483;-63
2021/09/28 00:43:54;;;;;;;6.05;1.60;;;;;;;13.52;65.79;100538.25;10429677;28;20513;-63
2021/09/28 00:48:56;;;;;;;6.03;1.85;;;;;;;13.53;66.00;100541.75;10429269;28;20413;-63
2021/09/28 00:53:59;;;;;;;7.70;1.80;;;;;;;13.53;66.01;100541.75;10429061;28;20049;-63
2021/09/28 00:59:01;;;;;;;10.82;1.92;;;;;;;13.47;66.01;100544.75;10428004;28;20057;-63
2021/09/28 01:04:03;;;;;;;7.28;1.90;;;;;;;13.31;66.24;100551.88;10429153;28;20052;-63
2021/09/28 01:09:04;;;;;;;8.27;1.63;;;;;;;13.33;65.76;100550.81;10427879;28;20420;-63
2021/09/28 01:14:07;;;;;;;7.35;2.45;;;;;;;13.39;65.74;100554.84;10428226;28;20053;-63
2021/09/28 01:19:09;;;;;;;8.05;2.20;;;;;;;13.41;66.09;100553.81;10426622;28;20055;-63
2021/09/28 01:24:10;;;;;;;7.55;1.70;;;;;;;13.42;66.02;100558.16;10428277;28;20142;-63
2021/09/28 01:29:12;;;;;;;9.35;2.05;;;;;;;13.39;65.80;100562.75;10426488;28;20045;-63
2021/09/28 01:34:16;;;;;;;5.80;1.77;;;;;;;13.41;66.00;100566.13;10427244;28;20041;-63
2021/09/28 01:39:19;;;;;;;8.02;1.88;;;;;;;13.34;66.06;100557.75;10426081;28;20548;-63
2021/09/28 01:44:22;;;;;;;7.28;1.80;;;;;;;13.33;66.05;100549.97;10425689;28;20057;-63
2021/09/28 01:49:24;;;;;;;7.70;1.83;;;;;;;13.29;66.16;100559.81;10427402;28;20041;-63
2021/09/28 01:54:25;;;;;;;7.43;1.75;;;;;;;13.24;66.17;100569.78;10425397;28;20071;-63
2021/09/28 01:59:27;;;;;;;7.57;1.92;;;;;;;13.23;65.79;100572.50;10425657;28;20398;-63
2021/09/28 02:04:29;;;;;;;8.65;2.05;;;;;;;13.12;65.74;100569.66;10432363;28;20489;-63
2021/09/28 02:09:30;;;;;;;7.50;2.00;;;;;;;13.02;66.10;100584.28;10431735;28;20053;-63
2021/09/28 02:14:32;;;;;;;7.45;2.20;;;;;;;12.95;66.03;100582.00;10434004;28;20048;-63
2021/09/28 02:19:34;;;;;;;14.10;2.97;;;;;;;12.73;65.93;100594.72;10432224;28;20040;-63
2021/09/28 02:24:35;;;;;;;9.77;2.60;;;;;;;12.41;66.59;100590.47;10432346;28;20045;-63
2021/09/28 02:29:37;;;;;;;5.55;1.90;;;;;;;12.35;66.69;100585.56;10431806;28;20072;-63
2021/09/28 02:34:39;;;;;;;6.30;2.15;;;;;;;12.13;66.96;100592.91;10432498;28;20493;-63
2021/09/28 02:39:41;;;;;;;7.85;2.75;;;;;;;12.13;67.00;100587.66;10432975;28;20049;-63
2021/09/28 02:44:43;;;;;;;6.85;2.17;;;;;;;12.13;66.87;100585.88;10432180;28;20049;-63
2021/09/28 02:49:44;;;;;;;7.88;2.00;;;;;;;12.13;67.21;100590.28;10430452;28;20056;-63
2021/09/28 02:54:46;;;;;;;7.50;2.35;;;;;;;12.14;66.86;100592.84;10432923;28;20053;-63
2021/09/28 02:59:47;;;;;;;8.73;2.13;;;;;;;12.18;67.09;100596.13;10431824;28;20060;-63
2021/09/28 03:04:49;;;;;;;8.32;2.50;;;;;;;12.19;67.07;100605.69;10427858;28;20045;-63
2021/09/28 03:09:51;;;;;;;92.40;4.30;;;;;;;12.21;66.90;100606.47;10426756;28;20465;-63
2021/09/28 03:14:52;;;;;;;193.30;6.07;;;;;;;12.25;66.99;100610.59;10424188;28;20140;-63
2021/09/28 03:19:54;;;;;;;212.30;6.32;;;;;;;12.25;66.78;100618.47;10424744;28;20187;-63
2021/09/28 03:24:56;;;;;;;74.15;4.32;;;;;;;12.21;66.80;100622.19;10424507;28;20059;-63
2021/09/28 03:29:57;;;;;;;10.57;2.30;;;;;;;12.09;66.94;100610.59;10424635;28;20049;-63
2021/09/28 03:34:59;;;;;;;10.73;2.67;;;;;;;12.01;66.81;100630.28;10424948;28;20098;-63
2021/09/28 03:40:01;;;;;;;7.82;2.47;;;;;;;11.97;67.02;100632.22;10425037;28;20071;-63
2021/09/28 03:45:04;;;;;;;9.82;2.35;;;;;;;11.88;67.13;100629.28;10430019;28;20055;-63
2021/09/28 03:50:06;;;;;;;6.68;2.83;;;;;;;11.83;67.35;100633.91;10431268;28;20806;-63
2021/09/28 03:55:08;;;;;;;6.40;2.55;;;;;;;11.72;67.56;100636.25;10432072;28;20045;-63
2021/09/28 04:00:11;;;;;;;11.98;3.00;;;;;;;11.72;67.46;100636.25;10430686;28;20052;-63
2021/09/28 04:05:13;;;;;;;5.43;2.22;;;;;;;11.69;67.51;100636.41;10430285;28;20055;-63
2021/09/28 04:10:14;;;;;;;7.35;3.40;;;;;;;11.63;67.39;100642.84;10430536;28;20045;-63
2021/09/28 04:15:19;;;;;;;7.30;3.42;;;;;;;11.54;67.41;100638.06;10430623;28;20045;-63
2021/09/28 04:20:21;;;;;;;9.88;3.35;;;;;;;11.49;67.37;100650.56;10430466;28;20059;-63
2021/09/28 04:25:23;;;;;;;6.78;2.60;;;;;;;11.38;67.33;100660.75;10430133;28;20049;-63
2021/09/28 04:30:24;;;;;;;7.53;2.90;;;;;;;11.35;67.26;100673.16;10430527;28;20052;-63
2021/09/28 04:35:26;;;;;;;12.70;4.47;;;;;;;11.32;67.15;100667.16;10429765;28;20060;-63
2021/09/28 04:40:28;;;;;;;7.18;3.00;;;;;;;11.23;67.25;100670.22;10429595;28;20528;-63
2021/09/28 04:45:30;;;;;;;5.43;2.60;;;;;;;11.23;67.35;100664.16;10427003;28;20397;-64
2021/09/28 04:50:32;;;;;;;7.05;3.20;;;;;;;11.22;67.14;100668.53;10429594;28;20060;-63
2021/09/28 04:55:33;;;;;;;27.48;3.92;;;;;;;11.14;66.96;100675.94;10429323;28;20180;-63
2021/09/28 05:00:35;;;;;;;125.68;5.80;;;;;;;11.10;67.93;100684.88;10428389;28;20055;-63
2021/09/28 05:05:37;;;;;;;98.00;4.60;;;;;;;11.13;67.28;100679.47;10428366;28;20049;-63
2021/09/28 05:10:38;;;;;;;735.58;16.65;;;;;;;11.04;67.26;100682.56;10428124;28;20063;-63
2021/09/28 05:15:40;;;;;;;591.22;13.85;;;;;;;10.93;67.76;100692.66;10426920;28;20049;-63
2021/09/28 05:20:42;;;;;;;429.42;9.80;;;;;;;10.90;67.92;100697.22;10428789;28;20154;-63
2021/09/28 05:25:44;;;;;;;89.30;4.80;;;;;;;10.90;67.94;100705.91;10428809;28;20493;-64
2021/09/28 05:30:46;;;;;;;91.60;5.63;;;;;;;10.94;68.01;100702.22;10427393;28;20045;-64
2021/09/28 05:35:48;;;;;;;160.55;5.88;;;;;;;11.07;67.82;100708.56;10427957;28;20401;-63
2021/09/28 05:40:50;;;;;;;189.05;5.75;;;;;;;11.19;67.62;100718.44;10427011;28;20485;-64
2021/09/28 05:45:52;;;;;;;440.27;10.40;;;;;;;11.26;67.41;100716.34;10427078;28;20063;-63
2021/09/28 05:50:53;;;;;;;274.25;7.47;;;;;;;11.24;67.29;100719.06;10426954;28;20489;-64
2021/09/28 05:55:55;;;;;;;69.65;3.45;;;;;;;11.32;67.27;100715.22;10426097;28;20056;-64
2021/09/28 06:00:57;;;;;;;99.85;5.50;;;;;;;11.40;66.85;100719.13;10425711;28;20547;-64
2021/09/28 06:06:00;;;;;;;53.97;3.47;;;;;;;11.46;66.42;100724.06;10425309;28;20081;-64
2021/09/28 06:11:02;;;;;;;327.05;9.45;;;;;;;11.49;66.28;100718.69;10424880;28;20052;-64
2021/09/28 06:16:04;;;;;;;307.10;7.80;;;;;;;11.43;66.49;100726.00;10423332;28;20162;-64
2021/09/28 06:21:06;;;;;;;239.70;6.30;;;;;;;11.60;66.37;100721.56;10425829;28;20453;-64
2021/09/28 06:26:08;;;;;;;206.50;6.15;;;;;;;11.79;66.01;100718.84;10426298;28;20051;-63
2021/09/28 06:31:10;;;;;;;164.88;4.82;;;;;;;11.91;65.34;100724.31;10424979;28;20045;-64
2021/09/28 06:36:11;;;;;;;375.35;8.77;;;;;;;11.96;65.43;100721.44;10426021;28;20171;-64
2021/09/28 06:41:13;;;;;;;435.92;11.20;;;;;;;11.94;65.21;100716.28;10424639;28;21388;-63
2021/09/28 06:46:15;;;;;;;177.38;6.20;;;;;;;11.97;65.15;100716.13;10426362;28;20457;-64
2021/09/28 06:51:17;;;;;;;228.02;6.90;;;;;;;12.21;64.88;100713.97;10424836;28;20508;-63
2021/09/28 06:56:20;;;;;;;302.23;9.20;;;;;;;12.29;64.37;100713.59;10425393;28;20045;-64
2021/09/28 07:01:22;;;;;;;88.18;4.50;;;;;;;12.29;64.50;100717.06;10425278;28;20424;-64
2021/09/28 07:06:24;;;;;;;69.28;4.38;;;;;;;12.56;64.39;100725.16;10420271;28;20049;-64
2021/09/28 07:11:26;;;;;;;17.95;2.90;;;;;;;13.19;63.06;100723.34;10421494;28;20048;-64
2021/09/28 07:16:28;;;;;;;17.13;3.10;;;;;;;13.67;62.09;100718.69;10426562;28;20111;-64
2021/09/28 07:21:30;;;;;;;16.92;3.47;;;;;;;13.77;61.42;100717.19;10431306;28;20056;-64
2021/09/28 07:26:31;;;;;;;13.43;3.30;;;;;;;13.84;61.06;100720.28;10426531;28;20045;-64
2021/09/28 07:31:33;;;;;;;16.88;3.63;;;;;;;13.76;61.15;100722.53;10429020;28;20432;-64
2021/09/28 07:36:36;;;;;;;309.50;12.52;;;;;;;13.89;60.65;100718.22;10403582;28;20572;-64
2021/09/28 07:41:37;;;;;;;30.95;4.03;;;;;;;14.26;60.58;100722.91;10429644;28;20059;-64
2021/09/28 07:46:39;;;;;;;13.25;4.40;;;;;;;14.02;60.27;100729.69;10430321;28;20663;-64
2021/09/28 07:51:41;;;;;;;6.57;2.60;;;;;;;13.99;61.15;100734.28;10429570;28;20120;-68
2021/09/28 07:56:43;;;;;;;6.68;3.05;;;;;;;14.15;61.10;100742.91;10429186;28;20127;-68
2021/09/28 08:01:44;;;;;;;8.52;3.97;;;;;;;14.40;60.24;100737.84;10429146;28;20049;-68
2021/09/28 08:06:47;;;;;;;10.57;4.07;;;;;;;14.25;60.71;100744.91;10429839;28;20146;-68
2021/09/28 08:11:52;;;;;;;9.90;3.70;;;;;;;14.46;60.04;100745.34;10426306;28;20067;-68
2021/09/28 08:16:54;;;;;;;6.63;3.60;;;;;;;14.64;60.71;100738.94;10430035;28;20103;-68
2021/09/28 08:21:55;;;;;;;6.65;3.53;;;;;;;14.88;58.87;100723.38;10430147;28;20480;-68
2021/09/28 08:32:17;;;;;;;7.22;3.38;;;;;;;14.87;59.49;100735.69;10429729;28;20053;-68
2021/09/28 08:37:19;;;;;;;8.93;3.70;;;;;;;14.89;59.42;100740.84;10428876;28;20063;-68
2021/09/28 08:42:22;;;;;;;7.85;4.18;;;;;;;14.74;59.57;100733.94;10428949;28;20057;-68
2021/09/28 08:47:33;;;;;;;6.93;3.40;;;;;;;14.62;59.77;100735.56;10426960;28;20515;-68
2021/09/28 08:52:41;;;;;;;12.43;3.35;;;;;;;14.72;59.49;100723.50;10426944;28;20183;-68
2021/09/28 08:58:12;;;;;;;8.75;3.40;;;;;;;14.73;59.78;100725.22;10428478;28;20061;-68
2021/09/28 09:03:28;;;;;;;;;;;;;;;14.66;59.92;100723.03;10426375;28;20481;-68
2021/09/28 09:08:33;;;;;;;6.93;2.58;;;;;;;15.08;59.26;100718.47;10410962;28;20099;-68
2021/09/28 09:13:41;;;;;;;6.35;2.63;;;;;;;15.37;58.12;100711.25;10424381;28;20068;-68
2021/09/28 09:18:49;;;;;;;9.32;2.55;;;;;;;15.76;57.46;100697.19;10427513;28;20041;-68
2021/09/28 09:23:52;;;;;;;7.03;2.33;;;;;;;16.21;56.76;100694.84;10427465;28;20049;-68
2021/09/28 09:28:58;;;;;;;7.55;3.20;;;;;;;16.31;56.35;100687.09;10427089;28;20041;-68
2021/09/28 09:34:11;;;;;;;8.90;2.20;;;;;;;16.79;54.93;100682.75;10427147;28;20053;-68
2021/09/28 09:39:13;;;;;;;7.93;2.58;;;;;;;16.92;54.96;100676.44;10426266;28;20052;-68
2021/09/28 09:44:16;;;;;;;12.45;2.40;;;;;;;16.96;54.29;100682.31;10426394;28;20194;-68
2021/09/28 09:49:26;;;;;;;7.07;2.30;;;;;;;17.00;54.15;100689.91;10426243;28;20075;-69
2021/09/28 09:54:37;;;;;;;7.97;2.97;;;;;;;16.98;54.07;100683.06;10405930;28;20049;-72
2021/09/28 09:59:40;;;;;;;10.45;2.40;;;;;;;17.11;54.50;100675.06;10422817;28;20413;-72
2021/09/28 10:04:41;;;;;;;10.80;2.67;;;;;;;17.10;53.85;100681.31;10420727;28;20053;-74
2021/09/28 10:09:47;;;;;;;9.43;2.78;;;;;;;17.13;54.15;100671.34;10417725;28;20041;-74
2021/09/28 10:14:51;;;;;;;9.88;2.60;;;;;;;17.16;54.38;100673.75;10423106;28;20079;-74
2021/09/28 10:20:02;;;;;;;7.82;2.30;;;;;;;17.33;53.86;100665.44;10424356;28;20382;-74
2021/09/28 10:25:19;;;;;;;9.07;2.42;;;;;;;17.54;53.06;100660.28;10425635;28;20059;-74
2021/09/28 10:30:42;;;;;;;7.63;2.15;;;;;;;17.53;52.50;100658.59;10423264;28;20630;-74
2021/09/28 10:35:56;;;;;;;9.70;2.53;;;;;;;17.75;51.58;100654.16;10424639;28;20497;-74
2021/09/28 10:40:58;;;;;;;10.70;2.75;;;;;;;17.87;51.90;100656.84;10420865;28;20053;-74
2021/09/28 10:46:03;;;;;;;6.97;2.50;;;;;;;17.64;51.57;100645.41;10421258;28;20055;-74
2021/09/28 10:51:07;;;;;;;6.90;2.30;;;;;;;17.73;52.09;100640.22;10422664;28;20149;-74
2021/09/28 10:56:11;;;;;;;11.23;2.45;;;;;;;18.09;51.57;100643.59;10431241;28;20087;-75
2021/09/28 11:01:14;;;;;;;8.00;2.35;;;;;;;18.12;51.02;100649.47;10432391;28;20057;-74
2021/09/28 11:06:17;;;;;;;11.30;2.20;;;;;;;18.28;50.67;100641.19;10431835;28;20049;-74
2021/09/28 11:11:21;;;;;;;9.25;2.40;;;;;;;18.10;50.90;100643.47;10429415;28;20053;-74
2021/09/28 11:16:23;;;;;;;8.10;2.35;;;;;;;18.42;50.27;100628.50;10431055;28;20059;-74
2021/09/28 11:21:25;;;;;;;8.35;2.30;;;;;;;18.29;50.38;100616.38;10431963;28;20085;-75
2021/09/28 11:26:32;;;;;;;9.38;2.30;;;;;;;18.33;50.79;100616.03;10430142;28;20361;-74
2021/09/28 11:31:37;;;;;;;9.27;2.03;;;;;;;18.72;50.22;100603.97;10431468;28;20059;-74
2021/09/28 11:36:41;;;;;;;9.68;2.40;;;;;;;18.72;49.20;100609.25;10430254;28;20067;-74
2021/09/28 11:41:44;;;;;;;14.15;2.75;;;;;;;18.82;48.94;100596.94;10431573;28;20053;-74
2021/09/28 11:46:46;;;;;;;9.82;2.40;;;;;;;18.75;48.30;100579.84;10431362;28;20057;-74
2021/09/28 11:51:48;;;;;;;8.45;2.10;;;;;;;18.87;49.35;100581.47;10426509;28;20497;-74
2021/09/28 11:56:52;;;;;;;8.95;2.00;;;;;;;18.79;48.19;100577.81;10428647;28;20045;-74
2021/09/28 12:01:55;;;;;;;9.60;2.75;;;;;;;18.83;48.40;100569.44;10425297;28;20065;-74
2021/09/28 12:12:11;;;;;;;10.90;2.30;;;;;;;18.79;47.88;100552.13;10429639;28;20057;-74
2021/09/28 12:17:18;;;;;;;12.10;2.17;;;;;;;18.69;48.20;100545.91;10427199;28;20136;-74
2021/09/28 12:22:26;;;;;;;10.45;2.28;;;;;;;18.77;47.67;100542.63;10428573;28;20041;-74
2021/09/28 12:27:28;;;;;;;12.85;2.30;;;;;;;19.00;46.90;100531.75;10429437;28;20048;-75
2021/09/28 12:32:32;;;;;;;9.40;2.17;;;;;;;18.78;46.53;100523.94;10428588;28;20045;-74
2021/09/28 12:37:45;;;;;;;9.15;2.10;;;;;;;18.44;46.36;100514.50;10430528;28;20057;-74
2021/09/28 12:42:58;;;;;;;9.77;2.35;;;;;;;18.34;46.78;100514.41;10428581;28;20049;-74
2021/09/28 12:48:01;;;;;;;12.98;2.10;;;;;;;18.40;46.49;100511.25;10426315;28;20280;-74
2021/09/28 12:53:15;;;;;;;9.30;2.15;;;;;;;18.48;44.69;100505.34;10427999;28;20132;-75
2021/09/28 12:58:17;;;;;;;9.10;1.83;;;;;;;18.24;44.80;100507.38;10426434;28;20067;-74
2021/09/28 13:03:23;;;;;;;9.10;2.05;;;;;;;18.45;45.23;100497.63;10426654;28;20131;-74
2021/09/28 13:08:27;;;;;;;10.48;2.00;;;;;;;18.53;45.31;100481.94;10427085;28;20164;-74
2021/09/28 13:13:31;;;;;;;11.13;1.83;;;;;;;18.28;43.93;100472.53;10426445;28;20044;-74
2021/09/28 13:18:37;;;;;;;7.95;1.98;;;;;;;18.04;43.56;100465.75;10422176;28;20049;-74
2021/09/28 13:23:39;;;;;;;10.05;2.30;;;;;;;18.07;43.49;100461.06;10426362;28;20434;-74
2021/09/28 13:28:42;;;;;;;8.52;1.90;;;;;;;18.04;43.39;100468.41;10426856;28;20405;-73
2021/09/28 13:33:43;;;;;;;7.30;1.77;;;;;;;18.33;42.45;100459.78;10427952;28;20053;-74
2021/09/28 13:38:45;;;;;;;8.15;1.90;;;;;;;18.22;42.88;100451.88;10427649;28;20408;-73
2021/09/28 13:43:47;;;;;;;7.47;1.70;;;;;;;18.38;41.85;100448.81;10425709;28;20056;-72
2021/09/28 13:48:49;;;;;;;6.63;1.77;;;;;;;18.23;42.90;100437.69;10427071;28;20059;-73
2021/09/28 13:53:51;;;;;;;6.43;1.95;;;;;;;18.33;42.89;100432.44;10425748;28;20160;-73
2021/09/28 13:58:52;;;;;;;7.82;1.85;;;;;;;18.22;43.46;100425.41;10424540;28;20049;-72
2021/09/28 14:03:54;;;;;;;8.32;2.00;;;;;;;18.33;43.41;100427.16;10425177;28;20060;-73
2021/09/28 14:08:56;;;;;;;4.78;1.50;;;;;;;18.42;43.26;100426.38;10424657;28;20451;-73
2021/09/28 14:13:58;;;;;;;11.80;2.22;;;;;;;18.47;43.29;100417.06;10423936;28;20486;-72
2021/09/28 14:18:59;;;;;;;8.70;1.90;;;;;;;18.52;44.24;100416.69;10417538;28;20051;-73
2021/09/28 14:24:01;;;;;;;9.75;1.73;;;;;;;18.46;42.45;100417.22;10425201;28;21067;-72
2021/09/28 14:29:03;;;;;;;7.25;2.03;;;;;;;18.38;42.32;100403.78;10425301;28;20049;-73
2021/09/28 14:34:05;;;;;;;10.63;2.00;;;;;;;18.23;41.92;100394.47;10425690;28;20056;-72
2021/09/28 14:39:07;;;;;;;7.55;1.98;;;;;;;18.26;42.55;100387.09;10423979;28;20048;-71
2021/09/28 14:44:13;;;;;;;8.05;1.95;;;;;;;18.39;43.15;100385.13;10423734;28;20441;-72
2021/09/28 14:49:14;;;;;;;7.85;1.80;;;;;;;18.35;43.00;100373.09;10425140;28;20192;-72
2021/09/28 14:54:16;;;;;;;11.20;2.75;;;;;;;18.43;42.52;100370.63;10411915;28;20049;-73
2021/09/28 14:59:18;;;;;;;8.75;1.90;;;;;;;18.31;42.74;100362.88;10419293;28;20053;-73
2021/09/28 15:04:19;;;;;;;7.88;1.85;;;;;;;18.14;42.93;100363.44;10422887;28;20048;-73
2021/09/28 15:09:21;;;;;;;8.25;2.20;;;;;;;18.14;43.21;100358.13;10422899;28;20061;-74
2021/09/28 15:14:23;;;;;;;8.02;1.95;;;;;;;18.22;42.81;100359.22;10423397;28;20049;-74
2021/09/28 15:19:25;;;;;;;9.95;1.90;;;;;;;18.24;43.22;100357.28;10422035;28;20350;-74
2021/09/28 15:24:27;;;;;;;7.65;1.88;;;;;;;18.35;43.50;100361.66;10422591;28;20069;-74
2021/09/28 15:29:29;;;;;;;13.15;2.40;;;;;;;18.18;43.48;100362.25;10423224;28;20424;-74
2021/09/28 15:34:31;;;;;;;9.45;1.90;;;;;;;17.97;43.06;100350.78;10422805;28;20065;-73
2021/09/28 15:39:33;;;;;;;12.15;2.55;;;;;;;18.03;43.75;100355.56;10429821;28;20060;-74
2021/09/28 15:44:35;;;;;;;9.48;2.53;;;;;;;18.01;44.23;100349.56;10431073;28;20052;-74
2021/09/28 15:49:37;;;;;;;10.80;1.98;;;;;;;17.94;44.02;100353.69;10429159;28;20106;-74
2021/09/28 15:54:38;;;;;;;7.88;1.90;;;;;;;17.79;44.33;100338.13;10430856;28;20060;-73
2021/09/28 15:59:40;;;;;;;8.95;1.75;;;;;;;17.63;44.20;100328.94;10428656;28;20044;-73
2021/09/28 16:04:42;;;;;;;10.38;1.85;;;;;;;17.54;45.33;100325.25;10430879;28;20052;-73
2021/09/28 16:09:44;;;;;;;9.80;2.15;;;;;;;17.53;45.73;100320.91;10427819;28;20049;-72
2021/09/28 16:14:46;;;;;;;8.55;1.70;;;;;;;17.43;47.04;100319.16;10431348;28;20041;-73
2021/09/28 16:19:47;;;;;;;9.00;2.03;;;;;;;17.17;46.62;100323.03;10426764;28;20049;-74
2021/09/28 16:24:49;;;;;;;8.38;2.10;;;;;;;17.04;47.92;100315.25;10430183;28;20538;-69
2021/09/28 16:29:51;;;;;;;10.93;1.95;;;;;;;16.75;48.59;100319.41;10424927;28;20037;-70
2021/09/28 16:34:52;;;;;;;11.85;2.50;;;;;;;16.62;49.69;100316.03;10428668;28;20053;-70
2021/09/28 16:39:54;;;;;;;8.05;1.80;;;;;;;16.48;50.72;100324.19;10429434;28;20041;-70
2021/09/28 16:44:55;;;;;;;7.25;2.13;;;;;;;16.39;51.51;100314.31;10426534;28;20513;-71
2021/09/28 16:49:57;;;;;;;13.40;4.50;;;;;;;16.29;53.05;100326.53;10422286;28;20051;-71
2021/09/28 16:54:59;;;;;;;16.88;10.60;;;;;;;16.20;53.87;100325.47;10426901;28;20060;-70
2021/09/28 17:00:07;;;;;;;23.55;14.43;;;;;;;16.14;54.34;100329.41;10426101;28;20586;-70
2021/09/28 17:05:09;;;;;;;9.85;4.28;;;;;;;16.04;54.05;100324.97;10426147;28;20408;-70
2021/09/28 17:10:11;;;;;;;8.88;3.35;;;;;;;15.86;54.52;100324.53;10420910;28;20501;-70
2021/09/28 17:15:12;;;;;;;11.40;3.28;;;;;;;15.67;54.98;100326.91;10424552;28;20053;-71
2021/09/28 17:20:21;;;;;;;17.15;5.80;;;;;;;15.52;56.07;100324.53;10424842;28;20053;-69
2021/09/28 17:25:23;;;;;;;16.30;8.88;;;;;;;15.39;55.89;100327.19;10424873;28;20056;-71
2021/09/28 17:30:25;;;;;;;16.50;5.45;;;;;;;15.29;56.26;100320.91;10422361;28;20055;-65
2021/09/28 17:35:27;;;;;;;14.90;3.00;;;;;;;15.20;56.91;100321.59;10420507;28;20059;-65
2021/09/28 17:40:31;;;;;;;7.93;3.30;;;;;;;15.08;57.20;100330.38;10424855;28;20080;-65
2021/09/28 17:45:34;;;;;;;8.63;2.50;;;;;;;14.94;57.66;100325.28;10425960;28;20063;-65
2021/09/28 17:50:36;;;;;;;8.95;2.30;;;;;;;14.88;58.28;100329.16;10424638;28;20128;-65
2021/09/28 18:00:39;;;;;;;6.88;2.50;;;;;;;14.68;58.68;100324.47;10421775;28;20045;-65
2021/09/28 18:05:43;;;;;;;9.80;2.50;;;;;;;14.56;58.98;100328.81;10422669;28;20434;-65
2021/09/28 18:10:45;;;;;;;9.32;3.15;;;;;;;14.47;59.42;100339.13;10425700;28;20140;-66
2021/09/28 18:15:47;;;;;;;7.63;2.40;;;;;;;14.35;59.69;100327.63;10421058;28;20045;-66
2021/09/28 18:20:48;;;;;;;9.38;2.85;;;;;;;14.30;59.80;100319.22;10422853;28;20045;-66
2021/09/28 18:25:50;;;;;;;8.77;2.38;;;;;;;14.23;59.85;100317.09;10420832;28;20292;-65
2021/09/28 18:30:55;;;;;;;8.85;2.25;;;;;;;14.10;60.27;100326.78;10419970;28;20053;-66
2021/09/28 18:35:57;;;;;;;6.35;2.00;;;;;;;14.00;60.62;100326.56;10422995;28;20578;-65
2021/09/28 18:41:17;;;;;;;8.65;2.28;;;;;;;13.90;60.71;100332.56;10419924;28;20553;-65
2021/09/28 18:46:20;;;;;;;9.27;2.50;;;;;;;13.78;61.09;100319.28;10424322;28;20565;-66
2021/09/28 18:51:22;;;;;;;8.32;2.50;;;;;;;13.55;61.10;100317.34;10424703;28;20135;-66
2021/09/28 18:56:33;;;;;;;7.15;2.38;;;;;;;13.41;61.63;100313.91;10423452;28;20056;-65
2021/09/28 19:01:42;;;;;;;11.60;3.00;;;;;;;13.36;61.88;100313.34;10422963;28;20418;-65
2021/09/28 19:06:50;;;;;;;10.95;2.58;;;;;;;13.35;62.20;100309.03;10424866;28;20110;-65
2021/09/28 19:11:53;;;;;;;9.35;2.20;;;;;;;13.32;62.04;100309.22;10426960;28;20049;-65
2021/09/28 19:16:54;;;;;;;9.98;2.38;;;;;;;13.02;62.58;100300.69;10431190;28;20115;-65
2021/09/28 19:21:56;;;;;;;12.65;2.42;;;;;;;12.88;63.04;100307.66;10431607;28;20136;-65
2021/09/28 19:27:00;;;;;;;8.23;2.20;;;;;;;12.89;63.39;100311.13;10432462;28;20048;-65
2021/09/28 19:32:06;;;;;;;9.43;2.67;;;;;;;12.94;63.09;100306.44;10432539;28;20045;-65
2021/09/28 19:37:08;;;;;;;10.18;2.63;;;;;;;12.95;62.96;100308.97;10429321;28;20045;-65
2021/09/28 19:42:12;;;;;;;9.57;2.72;;;;;;;12.93;62.91;100295.09;10431003;28;20394;-65
2021/09/28 19:47:14;;;;;;;8.95;2.40;;;;;;;12.90;62.98;100297.91;10431185;28;20497;-65
2021/09/28 19:52:20;;;;;;;9.77;2.22;;;;;;;12.81;62.72;100300.28;10430596;28;20409;-66
2021/09/28 19:57:45;;;;;;;7.53;2.30;;;;;;;12.72;63.10;100304.31;10429474;28;20417;-65
2021/09/28 20:39:48;;;;;;;9.97;2.60;;;;;;;12.26;63.65;100275.75;10427370;28;20056;-66
2021/09/28 20:44:50;;;;;;;6.57;2.10;;;;;;;12.22;63.66;100271.63;10428304;28;20059;-67
2021/09/28 20:49:52;;;;;;;5.78;1.90;;;;;;;12.15;63.66;100263.28;10428326;28;20064;-65
2021/09/28 20:54:54;;;;;;;8.00;2.03;;;;;;;12.09;63.65;100263.66;10426113;28;20053;-65
2021/09/28 20:59:55;;;;;;;8.32;2.25;;;;;;;11.95;63.63;100261.88;10427343;28;20080;-66
2021/09/28 21:04:57;;;;;;;7.85;2.17;;;;;;;11.92;63.81;100254.22;10427529;28;20053;-65
2021/09/28 21:09:59;;;;;;;7.30;2.10;;;;;;;11.91;63.81;100254.28;10426993;28;20421;-65
2021/09/28 21:15:00;;;;;;;9.45;2.20;;;;;;;11.89;64.06;100245.66;10423027;28;20049;-65
2021/09/28 21:20:04;;;;;;;7.72;2.28;;;;;;;11.88;63.72;100242.22;10422537;28;20536;-64
2021/09/28 21:25:07;;;;;;;11.02;2.20;;;;;;;11.59;63.98;100245.72;10425232;28;20053;-65
2021/09/28 21:30:09;;;;;;;6.68;2.05;;;;;;;11.58;64.40;100248.44;10425351;28;20055;-64
2021/09/28 21:35:13;;;;;;;5.88;1.98;;;;;;;11.64;64.24;100238.41;10421730;28;20146;-65
2021/09/28 21:40:16;;;;;;;8.98;2.35;;;;;;;11.60;64.05;100243.97;10424424;28;20052;-64
2021/09/28 21:45:19;;;;;;;6.63;2.15;;;;;;;11.49;64.23;100231.47;10422757;28;20064;-64
2021/09/28 21:50:21;;;;;;;6.72;2.08;;;;;;;11.48;64.37;100231.59;10425957;28;20380;-64
2021/09/28 21:55:23;;;;;;;8.45;2.10;;;;;;;11.46;64.48;100223.78;10424460;28;20051;-64
2021/09/28 22:00:26;;;;;;;8.80;2.25;;;;;;;11.40;63.98;100218.91;10425514;28;20057;-65
2021/09/28 22:05:27;;;;;;;7.90;2.20;;;;;;;11.32;64.22;100212.47;10425122;28;20285;-65
2021/09/28 22:10:30;;;;;;;5.75;2.03;;;;;;;11.37;64.50;100202.53;10422192;28;20080;-64
2021/09/28 22:15:33;;;;;;;7.40;2.33;;;;;;;11.41;64.23;100206.66;10425260;28;20049;-65
2021/09/28 22:20:39;;;;;;;7.38;2.10;;;;;;;11.42;64.31;100203.13;10424175;28;20060;-64
2021/09/28 22:25:41;;;;;;;10.32;2.42;;;;;;;11.38;64.16;100197.22;10424902;28;20431;-64
2021/09/28 22:30:43;;;;;;;12.82;2.70;;;;;;;11.38;64.18;100206.88;10403573;28;20059;-65
2021/09/28 22:35:44;;;;;;;21.50;2.88;;;;;;;11.35;64.12;100197.41;10425264;28;20040;-64
2021/09/28 22:40:47;;;;;;;22.60;3.22;;;;;;;11.28;64.47;100193.44;10425032;28;20053;-64
2021/09/28 22:45:48;;;;;;;4.10;2.10;;;;;;;11.27;64.04;100203.06;10424364;28;20114;-64
2021/09/28 22:50:50;;;;;;;7.85;2.35;;;;;;;11.28;64.29;100191.69;10425752;28;20049;-64
2021/09/28 22:55:52;;;;;;;7.13;2.65;;;;;;;11.19;63.92;100186.97;10424832;28;20697;-64
2021/09/28 23:00:53;;;;;;;9.25;2.50;;;;;;;11.17;64.14;100182.78;10424880;28;20045;-64
2021/09/28 23:05:56;;;;;;;6.63;2.28;;;;;;;11.12;63.97;100172.56;10424347;28;20057;-64
2021/09/28 23:10:58;;;;;;;8.98;2.50;;;;;;;11.02;64.11;100179.22;10423960;28;20512;-64
2021/09/28 23:15:59;;;;;;;7.97;2.60;;;;;;;10.97;64.44;100178.63;10424512;28;20052;-64
2021/09/28 23:21:02;;;;;;;5.88;2.03;;;;;;;10.96;64.54;100168.28;10424449;28;20519;-64
2021/09/28 23:26:03;;;;;;;5.45;1.90;;;;;;;10.94;64.49;100163.13;10425151;28;20072;-64
2021/09/28 23:31:05;;;;;;;7.63;2.30;;;;;;;10.95;64.25;100164.81;10422976;28;20045;-64
2021/09/28 23:36:07;;;;;;;4.70;1.98;;;;;;;10.95;64.39;100166.59;10423557;28;20049;-64
2021/09/28 23:41:09;;;;;;;6.65;1.95;;;;;;;11.07;64.09;100160.69;10423184;28;20208;-64
2021/09/28 23:46:11;;;;;;;6.57;2.05;;;;;;;11.18;64.06;100160.88;10423760;28;20053;-64
2021/09/28 23:51:12;;;;;;;6.30;2.03;;;;;;;11.23;63.83;100143.97;10423825;28;20048;-64
2021/09/28 23:56:14;;;;;;;5.45;2.10;;;;;;;11.15;63.95;100142.75;10423889;28;20052;-64
